首页
METAR-TAF:

METAR-TAF

机场 :

大加那利机场

大加那利岛, 西班牙

纬度: 27-56N, 经度: 015-23W, 海拔: 23米

当前天气观测

该预报发布于14分钟前的08:30 UTC
风速18节,风向
温度 27°C
湿度 62%
气压 1015 hPa
能见度10公里或以上
1500米以下无云,无积雨云

METAR: GCLP 140830Z 36018KT CAVOK 27/19 Q1015 NOSIG

时间: 09:44 (08:44 UTC)

预报

该预报发布于44分钟前的08:00 UTC
预报有效从14日的 09点(UTC)到 15日的 09点(UTC)
风速18节,风向
能见度10公里或以上
1500米以下无云,无积雨云

TAF: GCLP 140800Z 1409/1509 01018KT CAVOK TX28/1414Z TN23/1505Z

超过4000个机场的气象观测和天气预报(METAR&TAF报告)。

可查询的气象台以黄色和红色小点在地图上表示。

将鼠标移到小点上方,可查看气象台名称。

然后点击查看天气观测和预报。

如需切换地图:点击带黑十字的绿色按钮放大地图;点击带横线的绿色按钮缩小地图;或者点击绿色箭头查看邻近地区的地图。


METAR-TAF: